Time;durP1;ratioP1;P1;durP2;ratioP2;P2;SDS_P1;SDS_P2;PMS_P1;PMS_P2;Temp;Humidity;BMP_temperature;BMP_pressure;BME280_temperature;BME280_humidity;BME280_pressure;Samples;Min_cycle;Max_cycle;Signal;HPM_P1;HPM_P2
2023/07/08 01:19:31;;;;;;;8.38;4.90;;;;;;;;;;6221042;22;20202;-92
2023/07/08 01:22:40;;;;;;;8.90;5.22;;;;;;;;;;6242712;23;20170;-92
2023/07/08 01:30:07;;;;;;;11.90;5.15;;;;;;;;;;6257827;23;20246;-91
2023/07/08 01:33:17;;;;;;;13.10;5.50;;;;;;;;;;6241807;22;20166;-91
2023/07/08 01:36:22;;;;;;;8.80;5.43;;;;;;;;;;6241079;22;20233;-91
2023/07/08 01:39:29;;;;;;;10.75;5.63;;;;;;;;;;6242572;23;20173;-93
2023/07/08 01:42:35;;;;;;;10.48;5.05;;;;;;;;;;6243269;23;20175;-92
2023/07/08 01:45:41;;;;;;;12.80;5.38;;;;;;;;;;6242968;22;20166;-91
2023/07/08 01:48:48;;;;;;;12.02;5.35;;;;;;;;;;6241737;23;20175;-90
2023/07/08 01:51:53;;;;;;;12.02;5.00;;;;;;;;;;6242393;23;20178;-93
2023/07/08 01:55:06;;;;;;;11.43;5.28;;;;;;;;;;6241365;23;20167;-90
2023/07/08 01:58:11;;;;;;;10.30;5.15;;;;;;;;;;6243098;23;20502;-92
2023/07/08 02:01:16;;;;;;;10.93;5.32;;;;;;;;;;6242852;22;20169;-93
2023/07/08 02:04:24;;;;;;;10.63;5.13;;;;;;;;;;6242398;23;20678;-89
2023/07/08 02:07:29;;;;;;;9.10;5.13;;;;;;;;;;6242057;23;20166;-91
2023/07/08 02:10:36;;;;;;;10.25;5.72;;;;;;;;;;6240705;22;20194;-91
2023/07/08 02:13:42;;;;;;;11.75;5.00;;;;;;;;;;6243048;22;20150;-93
2023/07/08 02:16:47;;;;;;;10.05;5.25;;;;;;;;;;6242859;23;20167;-95
2023/07/08 02:19:53;;;;;;;12.00;5.32;;;;;;;;;;6240786;23;20253;-88
2023/07/08 02:22:58;;;;;;;10.13;5.43;;;;;;;;;;6242055;23;20163;-93
2023/07/08 02:26:04;;;;;;;11.27;5.68;;;;;;;;;;6240707;22;20494;-92
2023/07/08 02:29:09;;;;;;;12.57;5.47;;;;;;;;;;6241213;23;20174;-92
2023/07/08 02:32:14;;;;;;;12.05;5.75;;;;;;;;;;6241826;23;20170;-92
2023/07/08 02:35:20;;;;;;;12.40;5.97;;;;;;;;;;6240796;23;20677;-92
2023/07/08 02:38:25;;;;;;;10.30;5.40;;;;;;;;;;6242888;23;20214;-92
2023/07/08 02:41:32;;;;;;;10.48;5.85;;;;;;;;;;6243233;22;20167;-90
2023/07/08 02:44:37;;;;;;;9.98;5.57;;;;;;;;;;6242383;22;20668;-91
2023/07/08 02:47:42;;;;;;;12.35;6.07;;;;;;;;;;6242311;23;20221;-90
2023/07/08 02:50:47;;;;;;;10.05;5.70;;;;;;;;;;6241208;23;20265;-90
2023/07/08 02:53:52;;;;;;;11.93;6.22;;;;;;;;;;6243001;23;20171;-92
2023/07/08 02:57:00;;;;;;;10.18;6.18;;;;;;;;;;6243680;22;20154;-92
2023/07/08 03:00:06;;;;;;;12.27;6.07;;;;;;;;;;6240419;23;20174;-93
2023/07/08 03:03:11;;;;;;;12.27;6.25;;;;;;;;;;6241370;23;20528;-91
2023/07/08 03:06:17;;;;;;;10.35;5.93;;;;;;;;;;6240417;23;20240;-90
2023/07/08 03:09:23;;;;;;;12.75;5.75;;;;;;;;;;6240883;22;20174;-92
2023/07/08 03:12:30;;;;;;;13.25;6.25;;;;;;;;;;6246253;23;20186;-93
2023/07/08 03:15:36;;;;;;;15.23;6.13;;;;;;;;;;6241994;23;20165;-92
2023/07/08 03:18:46;;;;;;;14.30;6.65;;;;;;;;;;6240878;23;20246;-94
2023/07/08 03:21:52;;;;;;;10.50;5.43;;;;;;;;;;6241196;23;20174;-91
2023/07/08 03:24:58;;;;;;;15.13;5.93;;;;;;;;;;6239344;22;20175;-91
2023/07/08 03:31:57;;;;;;;12.35;6.13;;;;;;;;;;6240890;23;20186;-91
2023/07/08 03:35:02;;;;;;;9.43;5.70;;;;;;;;;;6240368;23;20166;-93
2023/07/08 03:38:07;;;;;;;12.63;6.10;;;;;;;;;;6242231;22;20159;-90
2023/07/08 03:41:12;;;;;;;9.88;5.65;;;;;;;;;;6240549;23;20243;-92
2023/07/08 03:44:18;;;;;;;17.73;7.22;;;;;;;;;;6243168;23;20170;-94
2023/07/08 03:47:25;;;;;;;10.48;5.72;;;;;;;;;;6241181;23;20170;-93
2023/07/08 03:50:31;;;;;;;10.82;5.85;;;;;;;;;;6241323;23;20191;-91
2023/07/08 03:53:37;;;;;;;10.55;5.88;;;;;;;;;;6243625;23;20242;-94
2023/07/08 03:56:42;;;;;;;10.98;5.85;;;;;;;;;;6245026;22;20167;-92
2023/07/08 03:59:48;;;;;;;14.63;6.43;;;;;;;;;;6243671;23;20225;-92
2023/07/08 04:02:58;;;;;;;12.65;6.25;;;;;;;;;;6240767;23;20266;-91
2023/07/08 04:06:03;;;;;;;11.02;6.05;;;;;;;;;;6240251;23;20166;-90
2023/07/08 04:09:08;;;;;;;11.55;6.32;;;;;;;;;;6240901;23;20244;-92
2023/07/08 04:12:13;;;;;;;13.15;6.43;;;;;;;;;;6241349;23;20167;-92
2023/07/08 04:15:18;;;;;;;13.63;6.47;;;;;;;;;;6241086;23;20163;-90
2023/07/08 04:18:25;;;;;;;11.88;6.18;;;;;;;;;;6239978;23;20202;-92
2023/07/08 04:21:31;;;;;;;14.52;6.97;;;;;;;;;;6240231;22;20151;-90
2023/07/08 04:24:36;;;;;;;13.98;6.18;;;;;;;;;;6239502;23;20170;-93
2023/07/08 04:27:52;;;;;;;12.05;6.22;;;;;;;;;;6241021;23;20174;-90
2023/07/08 04:30:57;;;;;;;11.68;6.35;;;;;;;;;;6241577;23;20186;-93
2023/07/08 04:34:06;;;;;;;14.45;6.53;;;;;;;;;;6241037;23;20181;-91
2023/07/08 04:37:13;;;;;;;10.80;6.22;;;;;;;;;;6241458;23;20170;-92
2023/07/08 04:40:20;;;;;;;11.13;6.22;;;;;;;;;;6240331;23;20174;-92
2023/07/08 04:43:28;;;;;;;12.13;6.72;;;;;;;;;;6243158;23;20170;-93
2023/07/08 04:46:38;;;;;;;13.52;6.65;;;;;;;;;;6244014;22;20210;-91
2023/07/08 04:49:45;;;;;;;11.70;5.82;;;;;;;;;;6242718;23;20170;-91
2023/07/08 04:52:50;;;;;;;12.77;6.22;;;;;;;;;;6244424;23;20151;-92
2023/07/08 04:56:34;;;;;;;11.02;6.00;;;;;;;;;;6243265;23;20173;-91
2023/07/08 04:59:42;;;;;;;11.15;5.93;;;;;;;;;;6244758;23;20499;-91
2023/07/08 05:02:47;;;;;;;11.35;6.32;;;;;;;;;;6243004;23;20246;-91
2023/07/08 05:05:54;;;;;;;11.23;6.57;;;;;;;;;;6242612;22;20238;-94
2023/07/08 05:09:00;;;;;;;9.25;5.57;;;;;;;;;;6242149;23;20166;-92
2023/07/08 05:12:06;;;;;;;13.00;6.25;;;;;;;;;;6242804;23;20198;-93
2023/07/08 05:15:12;;;;;;;9.75;5.55;;;;;;;;;;6243274;22;20182;-92
2023/07/08 05:18:17;;;;;;;17.33;6.35;;;;;;;;;;6242139;23;20167;-92
2023/07/08 05:21:24;;;;;;;9.57;6.00;;;;;;;;;;6242696;23;20295;-91
2023/07/08 05:24:29;;;;;;;10.45;5.70;;;;;;;;;;6241134;23;20497;-95
2023/07/08 05:31:55;;;;;;;11.75;5.97;;;;;;;;;;6261184;22;20206;-93
2023/07/08 05:35:00;;;;;;;13.20;6.65;;;;;;;;;;6241715;23;20278;-92
2023/07/08 05:38:08;;;;;;;10.02;5.85;;;;;;;;;;6242959;22;20237;-92
2023/07/08 05:41:13;;;;;;;15.18;6.35;;;;;;;;;;6243391;22;20186;-91
2023/07/08 05:44:19;;;;;;;11.57;5.68;;;;;;;;;;6243830;22;20186;-91
2023/07/08 05:47:24;;;;;;;10.95;5.80;;;;;;;;;;6243144;23;20163;-91
2023/07/08 05:50:29;;;;;;;10.65;6.45;;;;;;;;;;6241201;23;20189;-93
2023/07/08 05:53:36;;;;;;;12.38;5.65;;;;;;;;;;6243880;23;20163;-91
2023/07/08 05:56:57;;;;;;;11.00;5.85;;;;;;;;;;6242466;22;20293;-91
2023/07/08 06:00:02;;;;;;;11.70;6.05;;;;;;;;;;6242204;22;20167;-92
2023/07/08 06:03:17;;;;;;;16.67;6.03;;;;;;;;;;6263886;22;20183;-92
2023/07/08 06:06:22;;;;;;;10.13;5.95;;;;;;;;;;6244429;22;20166;-93
2023/07/08 06:09:29;;;;;;;10.75;5.80;;;;;;;;;;6242494;23;20162;-92
2023/07/08 06:12:34;;;;;;;12.10;6.15;;;;;;;;;;6242307;23;20177;-90
2023/07/08 06:15:39;;;;;;;11.35;6.20;;;;;;;;;;6241643;23;20206;-92
2023/07/08 06:18:46;;;;;;;10.45;6.13;;;;;;;;;;6242697;23;20253;-92
2023/07/08 06:21:51;;;;;;;12.45;6.03;;;;;;;;;;6242630;23;20185;-90
2023/07/08 06:24:58;;;;;;;16.60;6.00;;;;;;;;;;6242732;23;20206;-92
2023/07/08 06:28:06;;;;;;;11.35;6.32;;;;;;;;;;6243340;23;20162;-92
2023/07/08 06:31:11;;;;;;;9.35;5.72;;;;;;;;;;6244391;23;20262;-93
2023/07/08 06:34:17;;;;;;;15.05;6.20;;;;;;;;;;6246545;23;20174;-91
2023/07/08 06:37:22;;;;;;;11.38;6.35;;;;;;;;;;6225670;23;20211;-92
2023/07/08 06:40:29;;;;;;;11.55;6.05;;;;;;;;;;6244166;22;20210;-92
2023/07/08 06:43:34;;;;;;;11.73;5.50;;;;;;;;;;6246661;22;20222;-92
2023/07/08 06:46:47;;;;;;;9.30;5.10;;;;;;;;;;6244090;23;20166;-93
2023/07/08 06:49:52;;;;;;;7.60;4.15;;;;;;;;;;6247191;23;20166;-94
2023/07/08 06:52:58;;;;;;;8.60;4.60;;;;;;;;;;6244753;23;20174;-93
2023/07/08 06:59:53;;;;;;;8.82;4.20;;;;;;;;;;6245433;23;20205;-92
2023/07/08 07:02:59;;;;;;;6.65;3.95;;;;;;;;;;6243269;23;20166;-93
2023/07/08 07:06:05;;;;;;;8.13;4.43;;;;;;;;;;6244425;22;20146;-91
2023/07/08 07:09:10;;;;;;;8.40;4.30;;;;;;;;;;6244954;22;20645;-93
2023/07/08 07:12:16;;;;;;;11.57;4.25;;;;;;;;;;6245090;23;20195;-93
2023/07/08 07:15:24;;;;;;;8.68;4.07;;;;;;;;;;6245009;22;20167;-93
2023/07/08 07:18:30;;;;;;;7.68;4.30;;;;;;;;;;6245387;23;20496;-95
2023/07/08 07:21:35;;;;;;;6.63;4.28;;;;;;;;;;6243112;22;20162;-91
2023/07/08 07:24:40;;;;;;;7.00;4.20;;;;;;;;;;6244236;22;20174;-94
2023/07/08 07:31:41;;;;;;;7.20;4.05;;;;;;;;;;6241854;23;20186;-93
2023/07/08 07:34:52;;;;;;;8.02;3.72;;;;;;;;;;6245401;22;20153;-93
2023/07/08 07:37:57;;;;;;;13.25;4.00;;;;;;;;;;6247739;23;20265;-91
2023/07/08 07:41:06;;;;;;;5.38;3.83;;;;;;;;;;6221295;23;20181;-91
2023/07/08 07:44:12;;;;;;;7.57;4.40;;;;;;;;;;6244882;23;20165;-91
2023/07/08 07:47:19;;;;;;;8.10;4.40;;;;;;;;;;6245886;22;20580;-93
2023/07/08 07:50:25;;;;;;;9.73;4.13;;;;;;;;;;6247094;22;20176;-91
2023/07/08 07:53:31;;;;;;;13.18;4.10;;;;;;;;;;6245250;23;20170;-90
2023/07/08 07:56:46;;;;;;;4.82;3.80;;;;;;;;;;6249061;23;20209;-91
2023/07/08 07:59:52;;;;;;;9.00;4.20;;;;;;;;;;6245520;23;20161;-93
2023/07/08 08:02:59;;;;;;;7.43;3.85;;;;;;;;;;6246162;22;20194;-90
2023/07/08 08:06:04;;;;;;;10.85;4.10;;;;;;;;;;6247820;22;20165;-93
2023/07/08 08:09:10;;;;;;;7.47;4.25;;;;;;;;;;6245426;23;20217;-94
2023/07/08 08:15:37;;;;;;;7.57;3.90;;;;;;;;;;6264242;22;20613;-92
2023/07/08 08:18:57;;;;;;;7.65;4.32;;;;;;;;;;6247558;22;20181;-94
2023/07/08 08:22:02;;;;;;;7.13;4.07;;;;;;;;;;6246361;23;20180;-92
2023/07/08 08:25:07;;;;;;;11.30;4.38;;;;;;;;;;6243901;23;20292;-91
2023/07/08 08:28:14;;;;;;;5.93;3.30;;;;;;;;;;6246502;23;20211;-90
2023/07/08 08:31:20;;;;;;;6.32;3.80;;;;;;;;;;6249459;22;20181;-94
2023/07/08 08:34:28;;;;;;;8.13;4.25;;;;;;;;;;6250481;22;20170;-92
2023/07/08 08:37:34;;;;;;;8.65;3.72;;;;;;;;;;6249150;22;20162;-90
2023/07/08 08:40:41;;;;;;;9.05;4.20;;;;;;;;;;6265886;22;20487;-93
2023/07/08 08:43:47;;;;;;;7.53;3.97;;;;;;;;;;6245645;22;20165;-92
2023/07/08 08:46:56;;;;;;;7.28;3.95;;;;;;;;;;6246095;23;20166;-91
2023/07/08 08:57:35;;;;;;;7.75;4.20;;;;;;;;;;6247782;23;20201;-92
